sensor_id;sensor_type;location;lat;lon;timestamp;P1;durP1;ratioP1;P2;durP2;ratioP2
21905;SDS011;11117;48.644;9.006;2022-12-18T00:01:05;101.97;;;34.67;;
21905;SDS011;11117;48.644;9.006;2022-12-18T00:03:40;99.30;;;32.70;;
21905;SDS011;11117;48.644;9.006;2022-12-18T00:06:06;87.03;;;31.43;;
21905;SDS011;11117;48.644;9.006;2022-12-18T00:08:31;87.93;;;30.43;;
21905;SDS011;11117;48.644;9.006;2022-12-18T00:11:02;106.77;;;32.57;;
21905;SDS011;11117;48.644;9.006;2022-12-18T00:13:31;87.20;;;31.33;;
21905;SDS011;11117;48.644;9.006;2022-12-18T00:16:01;92.33;;;31.60;;
21905;SDS011;11117;48.644;9.006;2022-12-18T00:18:31;89.53;;;30.60;;
21905;SDS011;11117;48.644;9.006;2022-12-18T00:21:04;87.93;;;30.80;;
21905;SDS011;11117;48.644;9.006;2022-12-18T00:23:32;89.73;;;29.00;;
21905;SDS011;11117;48.644;9.006;2022-12-18T00:26:04;91.07;;;29.87;;
21905;SDS011;11117;48.644;9.006;2022-12-18T00:28:31;82.03;;;29.30;;
21905;SDS011;11117;48.644;9.006;2022-12-18T00:31:14;84.97;;;26.80;;
21905;SDS011;11117;48.644;9.006;2022-12-18T00:33:44;75.93;;;26.63;;
21905;SDS011;11117;48.644;9.006;2022-12-18T00:36:11;80.73;;;26.80;;
21905;SDS011;11117;48.644;9.006;2022-12-18T00:38:39;85.03;;;27.50;;
21905;SDS011;11117;48.644;9.006;2022-12-18T00:41:05;82.63;;;27.63;;
21905;SDS011;11117;48.644;9.006;2022-12-18T00:43:35;80.23;;;27.37;;
21905;SDS011;11117;48.644;9.006;2022-12-18T00:46:01;82.87;;;28.07;;
21905;SDS011;11117;48.644;9.006;2022-12-18T00:48:27;82.60;;;27.80;;
21905;SDS011;11117;48.644;9.006;2022-12-18T00:50:53;79.50;;;27.13;;
21905;SDS011;11117;48.644;9.006;2022-12-18T00:53:18;78.47;;;27.13;;
21905;SDS011;11117;48.644;9.006;2022-12-18T00:55:45;82.17;;;25.83;;
21905;SDS011;11117;48.644;9.006;2022-12-18T00:58:11;86.47;;;26.60;;
21905;SDS011;11117;48.644;9.006;2022-12-18T01:00:38;79.20;;;25.73;;
21905;SDS011;11117;48.644;9.006;2022-12-18T01:03:04;74.27;;;26.43;;
21905;SDS011;11117;48.644;9.006;2022-12-18T01:05:30;74.93;;;25.37;;
21905;SDS011;11117;48.644;9.006;2022-12-18T01:07:56;74.87;;;27.00;;
21905;SDS011;11117;48.644;9.006;2022-12-18T01:10:22;74.20;;;26.47;;
21905;SDS011;11117;48.644;9.006;2022-12-18T01:12:49;82.00;;;27.37;;
21905;SDS011;11117;48.644;9.006;2022-12-18T01:15:15;72.73;;;25.97;;
21905;SDS011;11117;48.644;9.006;2022-12-18T01:17:41;80.23;;;28.00;;
21905;SDS011;11117;48.644;9.006;2022-12-18T01:20:08;80.23;;;27.60;;
21905;SDS011;11117;48.644;9.006;2022-12-18T01:22:36;79.57;;;26.87;;
21905;SDS011;11117;48.644;9.006;2022-12-18T01:25:03;76.13;;;26.10;;
21905;SDS011;11117;48.644;9.006;2022-12-18T01:27:29;77.60;;;26.70;;
21905;SDS011;11117;48.644;9.006;2022-12-18T01:29:55;74.20;;;25.07;;
21905;SDS011;11117;48.644;9.006;2022-12-18T01:32:20;75.50;;;24.87;;
21905;SDS011;11117;48.644;9.006;2022-12-18T01:34:46;75.57;;;24.67;;
21905;SDS011;11117;48.644;9.006;2022-12-18T01:37:11;70.60;;;25.63;;
21905;SDS011;11117;48.644;9.006;2022-12-18T01:39:37;68.63;;;24.00;;
21905;SDS011;11117;48.644;9.006;2022-12-18T01:42:11;77.03;;;26.50;;
21905;SDS011;11117;48.644;9.006;2022-12-18T01:47:30;72.20;;;25.57;;
21905;SDS011;11117;48.644;9.006;2022-12-18T01:50:15;74.53;;;25.93;;
21905;SDS011;11117;48.644;9.006;2022-12-18T01:52:56;90.03;;;27.37;;
21905;SDS011;11117;48.644;9.006;2022-12-18T01:55:31;82.87;;;27.97;;
21905;SDS011;11117;48.644;9.006;2022-12-18T01:58:01;85.07;;;28.63;;
21905;SDS011;11117;48.644;9.006;2022-12-18T02:00:28;85.73;;;29.43;;
21905;SDS011;11117;48.644;9.006;2022-12-18T02:02:54;82.80;;;27.37;;
21905;SDS011;11117;48.644;9.006;2022-12-18T02:05:23;81.27;;;26.47;;
21905;SDS011;11117;48.644;9.006;2022-12-18T02:08:01;67.70;;;24.10;;
21905;SDS011;11117;48.644;9.006;2022-12-18T02:10:56;61.20;;;22.47;;
21905;SDS011;11117;48.644;9.006;2022-12-18T02:13:39;64.47;;;23.97;;
21905;SDS011;11117;48.644;9.006;2022-12-18T02:16:18;72.87;;;25.10;;
21905;SDS011;11117;48.644;9.006;2022-12-18T02:18:53;71.90;;;24.90;;
21905;SDS011;11117;48.644;9.006;2022-12-18T02:24:06;66.30;;;23.23;;
21905;SDS011;11117;48.644;9.006;2022-12-18T02:26:43;73.77;;;23.77;;
21905;SDS011;11117;48.644;9.006;2022-12-18T02:31:50;65.30;;;23.30;;
21905;SDS011;11117;48.644;9.006;2022-12-18T02:34:18;70.20;;;22.13;;
21905;SDS011;11117;48.644;9.006;2022-12-18T02:36:46;66.03;;;22.80;;
21905;SDS011;11117;48.644;9.006;2022-12-18T02:39:13;68.40;;;24.20;;
21905;SDS011;11117;48.644;9.006;2022-12-18T02:41:40;67.73;;;24.80;;
21905;SDS011;11117;48.644;9.006;2022-12-18T02:44:08;66.80;;;24.47;;
21905;SDS011;11117;48.644;9.006;2022-12-18T02:46:43;72.70;;;24.67;;
21905;SDS011;11117;48.644;9.006;2022-12-18T02:49:21;68.50;;;25.43;;
21905;SDS011;11117;48.644;9.006;2022-12-18T02:51:59;68.43;;;25.40;;
21905;SDS011;11117;48.644;9.006;2022-12-18T03:00:43;71.87;;;24.50;;
21905;SDS011;11117;48.644;9.006;2022-12-18T03:03:24;68.97;;;24.83;;
21905;SDS011;11117;48.644;9.006;2022-12-18T03:05:56;68.20;;;24.47;;
21905;SDS011;11117;48.644;9.006;2022-12-18T03:08:41;74.40;;;25.03;;
21905;SDS011;11117;48.644;9.006;2022-12-18T03:11:10;65.50;;;22.87;;
21905;SDS011;11117;48.644;9.006;2022-12-18T03:13:43;66.00;;;22.83;;
21905;SDS011;11117;48.644;9.006;2022-12-18T03:16:15;66.70;;;23.00;;
21905;SDS011;11117;48.644;9.006;2022-12-18T03:18:49;62.20;;;22.20;;
21905;SDS011;11117;48.644;9.006;2022-12-18T03:21:21;60.13;;;22.07;;
21905;SDS011;11117;48.644;9.006;2022-12-18T03:23:50;64.47;;;23.23;;
21905;SDS011;11117;48.644;9.006;2022-12-18T03:26:19;70.60;;;23.57;;
21905;SDS011;11117;48.644;9.006;2022-12-18T03:28:52;69.87;;;23.17;;
21905;SDS011;11117;48.644;9.006;2022-12-18T03:31:21;74.47;;;23.77;;
21905;SDS011;11117;48.644;9.006;2022-12-18T03:33:55;64.17;;;23.87;;
21905;SDS011;11117;48.644;9.006;2022-12-18T03:36:24;68.40;;;22.40;;
21905;SDS011;11117;48.644;9.006;2022-12-18T03:38:50;69.90;;;23.47;;
21905;SDS011;11117;48.644;9.006;2022-12-18T03:41:23;66.00;;;23.60;;
21905;SDS011;11117;48.644;9.006;2022-12-18T03:52:45;63.43;;;23.30;;
21905;SDS011;11117;48.644;9.006;2022-12-18T03:55:13;66.47;;;23.10;;
21905;SDS011;11117;48.644;9.006;2022-12-18T03:57:39;67.60;;;22.77;;
21905;SDS011;11117;48.644;9.006;2022-12-18T04:00:09;68.97;;;24.03;;
21905;SDS011;11117;48.644;9.006;2022-12-18T04:02:42;69.87;;;23.23;;
21905;SDS011;11117;48.644;9.006;2022-12-18T04:05:16;65.13;;;22.13;;
21905;SDS011;11117;48.644;9.006;2022-12-18T04:07:43;67.40;;;23.37;;
21905;SDS011;11117;48.644;9.006;2022-12-18T04:10:11;61.97;;;22.07;;
21905;SDS011;11117;48.644;9.006;2022-12-18T04:12:41;63.80;;;22.70;;
21905;SDS011;11117;48.644;9.006;2022-12-18T04:15:07;59.50;;;21.20;;
21905;SDS011;11117;48.644;9.006;2022-12-18T04:17:34;71.57;;;23.67;;
21905;SDS011;11117;48.644;9.006;2022-12-18T04:20:02;67.77;;;22.60;;
21905;SDS011;11117;48.644;9.006;2022-12-18T04:22:28;84.07;;;24.53;;
21905;SDS011;11117;48.644;9.006;2022-12-18T04:24:54;69.00;;;23.93;;
21905;SDS011;11117;48.644;9.006;2022-12-18T04:27:19;93.07;;;23.30;;
21905;SDS011;11117;48.644;9.006;2022-12-18T04:29:45;69.27;;;23.17;;
21905;SDS011;11117;48.644;9.006;2022-12-18T04:32:10;73.47;;;24.23;;
21905;SDS011;11117;48.644;9.006;2022-12-18T04:34:36;81.10;;;23.73;;
21905;SDS011;11117;48.644;9.006;2022-12-18T04:37:02;76.50;;;24.53;;
21905;SDS011;11117;48.644;9.006;2022-12-18T04:39:27;68.33;;;22.97;;
21905;SDS011;11117;48.644;9.006;2022-12-18T04:41:54;77.57;;;23.97;;
21905;SDS011;11117;48.644;9.006;2022-12-18T04:44:20;65.03;;;22.50;;
21905;SDS011;11117;48.644;9.006;2022-12-18T04:46:45;70.87;;;23.23;;
21905;SDS011;11117;48.644;9.006;2022-12-18T04:49:11;83.13;;;23.87;;
21905;SDS011;11117;48.644;9.006;2022-12-18T04:51:37;73.87;;;23.83;;
21905;SDS011;11117;48.644;9.006;2022-12-18T04:54:03;81.07;;;24.17;;
21905;SDS011;11117;48.644;9.006;2022-12-18T04:56:29;143.37;;;27.17;;
21905;SDS011;11117;48.644;9.006;2022-12-18T04:58:55;72.77;;;23.67;;
21905;SDS011;11117;48.644;9.006;2022-12-18T05:01:21;71.50;;;22.67;;
21905;SDS011;11117;48.644;9.006;2022-12-18T05:03:47;72.67;;;23.50;;
21905;SDS011;11117;48.644;9.006;2022-12-18T05:06:12;71.00;;;24.57;;
21905;SDS011;11117;48.644;9.006;2022-12-18T05:08:38;70.43;;;23.30;;
21905;SDS011;11117;48.644;9.006;2022-12-18T05:11:05;76.83;;;24.60;;
21905;SDS011;11117;48.644;9.006;2022-12-18T05:13:32;77.47;;;23.40;;
21905;SDS011;11117;48.644;9.006;2022-12-18T05:15:59;72.10;;;23.53;;
21905;SDS011;11117;48.644;9.006;2022-12-18T05:18:25;72.70;;;22.80;;
21905;SDS011;11117;48.644;9.006;2022-12-18T05:20:52;71.03;;;22.73;;
21905;SDS011;11117;48.644;9.006;2022-12-18T05:23:19;71.50;;;23.53;;
21905;SDS011;11117;48.644;9.006;2022-12-18T05:28:22;77.90;;;23.70;;
21905;SDS011;11117;48.644;9.006;2022-12-18T05:30:52;69.13;;;21.87;;
21905;SDS011;11117;48.644;9.006;2022-12-18T05:33:23;72.53;;;22.00;;
21905;SDS011;11117;48.644;9.006;2022-12-18T05:35:50;64.87;;;21.13;;
21905;SDS011;11117;48.644;9.006;2022-12-18T05:38:17;66.43;;;20.40;;
21905;SDS011;11117;48.644;9.006;2022-12-18T05:40:43;59.80;;;20.47;;
21905;SDS011;11117;48.644;9.006;2022-12-18T05:43:09;70.80;;;21.40;;
21905;SDS011;11117;48.644;9.006;2022-12-18T05:45:39;60.10;;;20.87;;
21905;SDS011;11117;48.644;9.006;2022-12-18T05:48:05;64.53;;;21.63;;
21905;SDS011;11117;48.644;9.006;2022-12-18T05:50:35;64.17;;;22.60;;
21905;SDS011;11117;48.644;9.006;2022-12-18T05:53:04;62.73;;;21.53;;
21905;SDS011;11117;48.644;9.006;2022-12-18T05:55:37;68.33;;;22.50;;
21905;SDS011;11117;48.644;9.006;2022-12-18T05:58:04;64.67;;;22.10;;
21905;SDS011;11117;48.644;9.006;2022-12-18T06:00:32;64.07;;;21.00;;
21905;SDS011;11117;48.644;9.006;2022-12-18T06:02:59;67.27;;;21.87;;
21905;SDS011;11117;48.644;9.006;2022-12-18T06:05:25;76.30;;;24.77;;
21905;SDS011;11117;48.644;9.006;2022-12-18T06:07:51;74.77;;;26.00;;
21905;SDS011;11117;48.644;9.006;2022-12-18T06:10:16;66.33;;;25.57;;
21905;SDS011;11117;48.644;9.006;2022-12-18T06:12:42;71.57;;;25.83;;
21905;SDS011;11117;48.644;9.006;2022-12-18T06:15:08;72.40;;;26.07;;
21905;SDS011;11117;48.644;9.006;2022-12-18T06:17:35;73.47;;;26.43;;
21905;SDS011;11117;48.644;9.006;2022-12-18T06:20:01;83.83;;;30.23;;
21905;SDS011;11117;48.644;9.006;2022-12-18T06:22:27;81.30;;;29.00;;
21905;SDS011;11117;48.644;9.006;2022-12-18T06:24:53;77.57;;;27.90;;
21905;SDS011;11117;48.644;9.006;2022-12-18T06:27:18;70.70;;;27.00;;
21905;SDS011;11117;48.644;9.006;2022-12-18T06:29:44;67.43;;;24.47;;
21905;SDS011;11117;48.644;9.006;2022-12-18T06:32:09;66.37;;;24.63;;
21905;SDS011;11117;48.644;9.006;2022-12-18T06:34:37;68.10;;;23.77;;
21905;SDS011;11117;48.644;9.006;2022-12-18T06:37:02;68.30;;;23.23;;
21905;SDS011;11117;48.644;9.006;2022-12-18T06:39:28;60.57;;;21.83;;
21905;SDS011;11117;48.644;9.006;2022-12-18T06:41:54;60.53;;;21.13;;
21905;SDS011;11117;48.644;9.006;2022-12-18T06:44:21;66.43;;;21.97;;
21905;SDS011;11117;48.644;9.006;2022-12-18T06:46:47;61.00;;;20.97;;
21905;SDS011;11117;48.644;9.006;2022-12-18T06:49:12;62.43;;;22.20;;
21905;SDS011;11117;48.644;9.006;2022-12-18T06:51:38;68.07;;;23.00;;
21905;SDS011;11117;48.644;9.006;2022-12-18T06:54:03;63.77;;;21.60;;
21905;SDS011;11117;48.644;9.006;2022-12-18T06:56:29;63.60;;;21.70;;
21905;SDS011;11117;48.644;9.006;2022-12-18T06:58:55;64.27;;;23.00;;
21905;SDS011;11117;48.644;9.006;2022-12-18T07:01:21;69.20;;;23.70;;
21905;SDS011;11117;48.644;9.006;2022-12-18T07:03:47;62.50;;;22.43;;
21905;SDS011;11117;48.644;9.006;2022-12-18T07:06:19;59.23;;;21.87;;
21905;SDS011;11117;48.644;9.006;2022-12-18T07:08:46;61.77;;;22.13;;
21905;SDS011;11117;48.644;9.006;2022-12-18T07:11:12;62.30;;;21.03;;
21905;SDS011;11117;48.644;9.006;2022-12-18T07:13:38;68.77;;;23.27;;
21905;SDS011;11117;48.644;9.006;2022-12-18T07:16:05;69.30;;;23.17;;
21905;SDS011;11117;48.644;9.006;2022-12-18T07:18:38;72.23;;;24.20;;
21905;SDS011;11117;48.644;9.006;2022-12-18T07:21:05;74.93;;;24.33;;
21905;SDS011;11117;48.644;9.006;2022-12-18T07:23:32;79.93;;;23.80;;
21905;SDS011;11117;48.644;9.006;2022-12-18T07:26:18;67.77;;;23.07;;
21905;SDS011;11117;48.644;9.006;2022-12-18T07:28:47;69.00;;;23.83;;
21905;SDS011;11117;48.644;9.006;2022-12-18T07:31:15;68.07;;;23.53;;
21905;SDS011;11117;48.644;9.006;2022-12-18T07:33:43;69.43;;;23.43;;
21905;SDS011;11117;48.644;9.006;2022-12-18T07:36:09;66.30;;;22.53;;
21905;SDS011;11117;48.644;9.006;2022-12-18T07:38:35;69.20;;;22.70;;
21905;SDS011;11117;48.644;9.006;2022-12-18T07:41:05;63.57;;;22.10;;
21905;SDS011;11117;48.644;9.006;2022-12-18T07:43:35;68.97;;;22.27;;
21905;SDS011;11117;48.644;9.006;2022-12-18T07:46:01;68.30;;;20.77;;
21905;SDS011;11117;48.644;9.006;2022-12-18T07:48:27;59.43;;;21.20;;
21905;SDS011;11117;48.644;9.006;2022-12-18T07:50:53;58.97;;;21.40;;
21905;SDS011;11117;48.644;9.006;2022-12-18T07:53:22;55.63;;;19.13;;
21905;SDS011;11117;48.644;9.006;2022-12-18T07:55:48;63.43;;;22.20;;
21905;SDS011;11117;48.644;9.006;2022-12-18T07:58:13;59.67;;;20.93;;
21905;SDS011;11117;48.644;9.006;2022-12-18T08:00:39;61.30;;;21.43;;
21905;SDS011;11117;48.644;9.006;2022-12-18T08:03:04;59.87;;;22.47;;
21905;SDS011;11117;48.644;9.006;2022-12-18T08:05:30;63.27;;;21.93;;
21905;SDS011;11117;48.644;9.006;2022-12-18T08:07:55;64.80;;;24.30;;
21905;SDS011;11117;48.644;9.006;2022-12-18T08:10:23;65.97;;;24.90;;
21905;SDS011;11117;48.644;9.006;2022-12-18T08:12:49;67.17;;;23.33;;
21905;SDS011;11117;48.644;9.006;2022-12-18T08:15:15;76.23;;;23.73;;
21905;SDS011;11117;48.644;9.006;2022-12-18T08:17:41;58.83;;;23.17;;
21905;SDS011;11117;48.644;9.006;2022-12-18T08:20:07;56.10;;;21.57;;
21905;SDS011;11117;48.644;9.006;2022-12-18T08:22:33;64.20;;;23.67;;
21905;SDS011;11117;48.644;9.006;2022-12-18T08:25:02;66.03;;;23.23;;
21905;SDS011;11117;48.644;9.006;2022-12-18T08:27:28;71.87;;;25.33;;
21905;SDS011;11117;48.644;9.006;2022-12-18T08:29:54;65.63;;;25.07;;
21905;SDS011;11117;48.644;9.006;2022-12-18T08:32:19;66.60;;;23.57;;
21905;SDS011;11117;48.644;9.006;2022-12-18T08:34:45;72.00;;;26.63;;
21905;SDS011;11117;48.644;9.006;2022-12-18T08:37:11;75.33;;;27.50;;
21905;SDS011;11117;48.644;9.006;2022-12-18T08:39:36;74.57;;;27.20;;
21905;SDS011;11117;48.644;9.006;2022-12-18T08:42:02;67.83;;;24.43;;
21905;SDS011;11117;48.644;9.006;2022-12-18T08:44:27;63.03;;;24.47;;
21905;SDS011;11117;48.644;9.006;2022-12-18T08:46:53;113.27;;;30.37;;
21905;SDS011;11117;48.644;9.006;2022-12-18T08:49:18;65.60;;;23.83;;
21905;SDS011;11117;48.644;9.006;2022-12-18T08:51:44;63.60;;;23.20;;
21905;SDS011;11117;48.644;9.006;2022-12-18T08:54:12;55.87;;;21.87;;
21905;SDS011;11117;48.644;9.006;2022-12-18T08:56:38;59.67;;;23.03;;
21905;SDS011;11117;48.644;9.006;2022-12-18T08:59:03;52.87;;;21.37;;
21905;SDS011;11117;48.644;9.006;2022-12-18T09:01:29;57.93;;;23.07;;
21905;SDS011;11117;48.644;9.006;2022-12-18T09:03:55;65.57;;;24.37;;
21905;SDS011;11117;48.644;9.006;2022-12-18T09:06:21;58.60;;;22.17;;
21905;SDS011;11117;48.644;9.006;2022-12-18T09:08:47;63.10;;;24.13;;
21905;SDS011;11117;48.644;9.006;2022-12-18T09:11:21;58.93;;;23.87;;
21905;SDS011;11117;48.644;9.006;2022-12-18T09:13:48;58.17;;;22.73;;
21905;SDS011;11117;48.644;9.006;2022-12-18T09:16:14;55.13;;;23.07;;
21905;SDS011;11117;48.644;9.006;2022-12-18T09:18:40;59.43;;;24.20;;
21905;SDS011;11117;48.644;9.006;2022-12-18T09:21:13;66.43;;;26.77;;
21905;SDS011;11117;48.644;9.006;2022-12-18T09:23:41;67.47;;;25.97;;
21905;SDS011;11117;48.644;9.006;2022-12-18T09:26:07;65.17;;;25.87;;
21905;SDS011;11117;48.644;9.006;2022-12-18T09:28:32;65.87;;;25.47;;
21905;SDS011;11117;48.644;9.006;2022-12-18T09:30:58;68.23;;;24.93;;
21905;SDS011;11117;48.644;9.006;2022-12-18T09:33:23;62.50;;;24.27;;
21905;SDS011;11117;48.644;9.006;2022-12-18T09:35:55;60.30;;;22.27;;
21905;SDS011;11117;48.644;9.006;2022-12-18T09:38:21;54.83;;;21.30;;
21905;SDS011;11117;48.644;9.006;2022-12-18T09:40:51;56.40;;;21.77;;
21905;SDS011;11117;48.644;9.006;2022-12-18T09:43:59;52.50;;;22.17;;
21905;SDS011;11117;48.644;9.006;2022-12-18T09:46:38;55.03;;;21.90;;
21905;SDS011;11117;48.644;9.006;2022-12-18T09:49:13;61.87;;;23.87;;
21905;SDS011;11117;48.644;9.006;2022-12-18T09:51:44;58.97;;;23.13;;
21905;SDS011;11117;48.644;9.006;2022-12-18T09:54:20;59.33;;;24.43;;
21905;SDS011;11117;48.644;9.006;2022-12-18T09:56:49;56.00;;;22.97;;
21905;SDS011;11117;48.644;9.006;2022-12-18T09:59:20;56.00;;;22.83;;
21905;SDS011;11117;48.644;9.006;2022-12-18T10:01:51;56.87;;;23.03;;
21905;SDS011;11117;48.644;9.006;2022-12-18T10:04:17;57.20;;;23.40;;
21905;SDS011;11117;48.644;9.006;2022-12-18T10:12:08;51.50;;;23.37;;
21905;SDS011;11117;48.644;9.006;2022-12-18T10:14:50;55.30;;;22.83;;
21905;SDS011;11117;48.644;9.006;2022-12-18T10:27:43;55.63;;;22.73;;
21905;SDS011;11117;48.644;9.006;2022-12-18T10:30:14;52.03;;;22.23;;
21905;SDS011;11117;48.644;9.006;2022-12-18T10:32:41;55.50;;;23.20;;
21905;SDS011;11117;48.644;9.006;2022-12-18T10:35:09;58.80;;;23.83;;
21905;SDS011;11117;48.644;9.006;2022-12-18T10:38:01;53.90;;;23.07;;
21905;SDS011;11117;48.644;9.006;2022-12-18T10:40:29;57.70;;;23.90;;
21905;SDS011;11117;48.644;9.006;2022-12-18T10:43:03;57.70;;;24.10;;
21905;SDS011;11117;48.644;9.006;2022-12-18T10:45:29;54.80;;;22.90;;
21905;SDS011;11117;48.644;9.006;2022-12-18T10:47:55;51.07;;;22.60;;
21905;SDS011;11117;48.644;9.006;2022-12-18T10:50:28;55.67;;;22.73;;
21905;SDS011;11117;48.644;9.006;2022-12-18T10:52:59;53.93;;;23.33;;
21905;SDS011;11117;48.644;9.006;2022-12-18T10:55:30;54.13;;;22.50;;
21905;SDS011;11117;48.644;9.006;2022-12-18T11:03:36;48.27;;;20.37;;
21905;SDS011;11117;48.644;9.006;2022-12-18T11:06:20;48.77;;;19.57;;
21905;SDS011;11117;48.644;9.006;2022-12-18T11:09:58;49.53;;;19.10;;
21905;SDS011;11117;48.644;9.006;2022-12-18T11:11:50;47.33;;;19.90;;
21905;SDS011;11117;48.644;9.006;2022-12-18T11:14:43;45.07;;;19.47;;
21905;SDS011;11117;48.644;9.006;2022-12-18T11:17:19;45.43;;;19.80;;
21905;SDS011;11117;48.644;9.006;2022-12-18T11:19:57;54.97;;;21.93;;
21905;SDS011;11117;48.644;9.006;2022-12-18T11:22:25;54.53;;;24.00;;
21905;SDS011;11117;48.644;9.006;2022-12-18T11:24:52;58.67;;;25.53;;
21905;SDS011;11117;48.644;9.006;2022-12-18T11:27:18;68.40;;;28.60;;
21905;SDS011;11117;48.644;9.006;2022-12-18T11:29:44;61.07;;;26.60;;
21905;SDS011;11117;48.644;9.006;2022-12-18T11:32:14;61.30;;;26.73;;
21905;SDS011;11117;48.644;9.006;2022-12-18T11:34:54;62.87;;;26.73;;
21905;SDS011;11117;48.644;9.006;2022-12-18T11:37:27;82.93;;;34.20;;
21905;SDS011;11117;48.644;9.006;2022-12-18T11:39:55;69.03;;;29.33;;
21905;SDS011;11117;48.644;9.006;2022-12-18T11:42:40;68.97;;;29.00;;
21905;SDS011;11117;48.644;9.006;2022-12-18T11:47:56;59.83;;;25.87;;
21905;SDS011;11117;48.644;9.006;2022-12-18T11:53:13;75.67;;;31.20;;
21905;SDS011;11117;48.644;9.006;2022-12-18T12:15:31;65.00;;;29.63;;
21905;SDS011;11117;48.644;9.006;2022-12-18T12:23:37;60.47;;;27.33;;
21905;SDS011;11117;48.644;9.006;2022-12-18T12:26:11;53.67;;;24.80;;
21905;SDS011;11117;48.644;9.006;2022-12-18T12:28:53;55.40;;;24.20;;
21905;SDS011;11117;48.644;9.006;2022-12-18T12:39:32;50.10;;;22.63;;
21905;SDS011;11117;48.644;9.006;2022-12-18T12:42:02;56.70;;;24.17;;
21905;SDS011;11117;48.644;9.006;2022-12-18T12:44:31;57.33;;;23.20;;
21905;SDS011;11117;48.644;9.006;2022-12-18T12:47:14;75.47;;;32.00;;
21905;SDS011;11117;48.644;9.006;2022-12-18T12:49:56;65.07;;;28.60;;
21905;SDS011;11117;48.644;9.006;2022-12-18T12:52:34;68.53;;;31.20;;
21905;SDS011;11117;48.644;9.006;2022-12-18T12:55:05;63.53;;;27.57;;
21905;SDS011;11117;48.644;9.006;2022-12-18T12:58:11;55.70;;;25.50;;
21905;SDS011;11117;48.644;9.006;2022-12-18T13:00:41;58.13;;;24.33;;
21905;SDS011;11117;48.644;9.006;2022-12-18T13:07:00;57.03;;;24.27;;
21905;SDS011;11117;48.644;9.006;2022-12-18T13:09:15;53.77;;;23.13;;
21905;SDS011;11117;48.644;9.006;2022-12-18T13:11:41;55.77;;;23.53;;
21905;SDS011;11117;48.644;9.006;2022-12-18T13:14:19;58.73;;;24.07;;
21905;SDS011;11117;48.644;9.006;2022-12-18T13:16:47;54.80;;;24.10;;
21905;SDS011;11117;48.644;9.006;2022-12-18T13:19:21;58.30;;;24.97;;
21905;SDS011;11117;48.644;9.006;2022-12-18T13:21:52;52.47;;;23.47;;
21905;SDS011;11117;48.644;9.006;2022-12-18T13:24:24;57.73;;;24.07;;
21905;SDS011;11117;48.644;9.006;2022-12-18T13:26:52;64.50;;;27.33;;
21905;SDS011;11117;48.644;9.006;2022-12-18T13:32:21;67.50;;;27.43;;
21905;SDS011;11117;48.644;9.006;2022-12-18T13:34:48;61.90;;;25.97;;
21905;SDS011;11117;48.644;9.006;2022-12-18T13:37:44;66.47;;;28.77;;
21905;SDS011;11117;48.644;9.006;2022-12-18T13:43:15;139.67;;;49.97;;
21905;SDS011;11117;48.644;9.006;2022-12-18T13:46:04;112.00;;;45.33;;
21905;SDS011;11117;48.644;9.006;2022-12-18T13:48:41;121.03;;;48.87;;
21905;SDS011;11117;48.644;9.006;2022-12-18T13:51:20;88.60;;;36.80;;
21905;SDS011;11117;48.644;9.006;2022-12-18T13:56:57;64.43;;;27.43;;
21905;SDS011;11117;48.644;9.006;2022-12-18T13:59:24;74.60;;;32.27;;
21905;SDS011;11117;48.644;9.006;2022-12-18T14:01:54;66.87;;;30.77;;
21905;SDS011;11117;48.644;9.006;2022-12-18T14:04:26;61.80;;;27.37;;
21905;SDS011;11117;48.644;9.006;2022-12-18T14:06:57;67.47;;;28.07;;
21905;SDS011;11117;48.644;9.006;2022-12-18T14:09:33;65.40;;;26.77;;
21905;SDS011;11117;48.644;9.006;2022-12-18T14:12:01;61.90;;;26.83;;
21905;SDS011;11117;48.644;9.006;2022-12-18T14:14:27;59.53;;;25.90;;
21905;SDS011;11117;48.644;9.006;2022-12-18T14:16:54;65.77;;;27.87;;
21905;SDS011;11117;48.644;9.006;2022-12-18T14:19:19;76.90;;;31.03;;
21905;SDS011;11117;48.644;9.006;2022-12-18T14:21:46;77.80;;;31.70;;
21905;SDS011;11117;48.644;9.006;2022-12-18T14:26:40;70.73;;;27.53;;
21905;SDS011;11117;48.644;9.006;2022-12-18T14:32:07;65.60;;;27.10;;
21905;SDS011;11117;48.644;9.006;2022-12-18T14:34:36;67.17;;;26.37;;
21905;SDS011;11117;48.644;9.006;2022-12-18T14:37:01;64.93;;;26.07;;
21905;SDS011;11117;48.644;9.006;2022-12-18T14:39:27;62.27;;;25.13;;
21905;SDS011;11117;48.644;9.006;2022-12-18T14:41:53;60.97;;;24.67;;
21905;SDS011;11117;48.644;9.006;2022-12-18T14:44:18;66.53;;;26.47;;
21905;SDS011;11117;48.644;9.006;2022-12-18T14:46:47;64.30;;;25.63;;
21905;SDS011;11117;48.644;9.006;2022-12-18T14:49:26;68.47;;;26.63;;
21905;SDS011;11117;48.644;9.006;2022-12-18T14:54:25;66.77;;;28.67;;
21905;SDS011;11117;48.644;9.006;2022-12-18T14:56:55;69.97;;;29.77;;
21905;SDS011;11117;48.644;9.006;2022-12-18T14:59:26;73.80;;;30.17;;
21905;SDS011;11117;48.644;9.006;2022-12-18T15:04:45;70.97;;;29.20;;
21905;SDS011;11117;48.644;9.006;2022-12-18T15:07:17;76.63;;;29.93;;
21905;SDS011;11117;48.644;9.006;2022-12-18T15:10:00;70.43;;;29.00;;
21905;SDS011;11117;48.644;9.006;2022-12-18T15:12:48;68.70;;;28.40;;
21905;SDS011;11117;48.644;9.006;2022-12-18T15:17:58;76.20;;;29.37;;
21905;SDS011;11117;48.644;9.006;2022-12-18T15:20:27;80.43;;;30.97;;
21905;SDS011;11117;48.644;9.006;2022-12-18T15:22:55;80.87;;;30.70;;
21905;SDS011;11117;48.644;9.006;2022-12-18T15:25:24;74.27;;;31.00;;
21905;SDS011;11117;48.644;9.006;2022-12-18T15:28:02;87.87;;;31.83;;
21905;SDS011;11117;48.644;9.006;2022-12-18T15:30:39;83.50;;;32.97;;
21905;SDS011;11117;48.644;9.006;2022-12-18T15:36:10;83.77;;;32.97;;
21905;SDS011;11117;48.644;9.006;2022-12-18T15:38:37;91.57;;;33.70;;
21905;SDS011;11117;48.644;9.006;2022-12-18T15:41:03;83.93;;;33.97;;
21905;SDS011;11117;48.644;9.006;2022-12-18T15:43:29;93.60;;;33.67;;
21905;SDS011;11117;48.644;9.006;2022-12-18T15:45:54;88.23;;;33.73;;
21905;SDS011;11117;48.644;9.006;2022-12-18T15:48:21;91.90;;;36.33;;
21905;SDS011;11117;48.644;9.006;2022-12-18T15:50:48;92.80;;;35.77;;
21905;SDS011;11117;48.644;9.006;2022-12-18T15:53:15;93.73;;;36.97;;
21905;SDS011;11117;48.644;9.006;2022-12-18T15:55:41;94.63;;;37.63;;
21905;SDS011;11117;48.644;9.006;2022-12-18T15:58:07;106.37;;;38.60;;
21905;SDS011;11117;48.644;9.006;2022-12-18T16:00:35;91.80;;;35.90;;
21905;SDS011;11117;48.644;9.006;2022-12-18T16:03:03;92.40;;;35.70;;
21905;SDS011;11117;48.644;9.006;2022-12-18T16:05:30;102.33;;;39.33;;
21905;SDS011;11117;48.644;9.006;2022-12-18T16:07:56;93.93;;;36.93;;
21905;SDS011;11117;48.644;9.006;2022-12-18T16:10:21;90.87;;;34.77;;
21905;SDS011;11117;48.644;9.006;2022-12-18T16:12:47;91.97;;;36.60;;
21905;SDS011;11117;48.644;9.006;2022-12-18T16:15:13;90.83;;;33.90;;
21905;SDS011;11117;48.644;9.006;2022-12-18T16:17:40;95.20;;;35.83;;
21905;SDS011;11117;48.644;9.006;2022-12-18T16:20:07;88.80;;;33.97;;
21905;SDS011;11117;48.644;9.006;2022-12-18T16:22:41;87.33;;;31.60;;
21905;SDS011;11117;48.644;9.006;2022-12-18T16:25:15;83.13;;;33.63;;
21905;SDS011;11117;48.644;9.006;2022-12-18T16:27:44;84.23;;;32.50;;
21905;SDS011;11117;48.644;9.006;2022-12-18T16:30:13;83.17;;;33.07;;